General Aviation Weather

Text Reports

Enter one or more of the following location identifiers separated by a space:

Zip Code, Four-Character ICAO or Three-Character IATA airport codes.

METAR - Aviation Routine Weather Report
KBML - Berlin, New Hampshire
Updated at 4:52 PM GMT on July 23, 2014 (12:52 PM EDT):
METAR KBML 231652Z AUTO 26007G16KT 220V320 9SM CLR 31/18 A2979 RMK AO2 SLP081 T03060183
TAF - Terminal Area Forecast
KBML - Berlin, New Hampshire
Updated at 4:52 PM GMT on July 23, 2014 (12:52 PM EDT):
No TAF is currently available for this location.
Decoded:
No decoded TAF is available.
PIREP - Pilot Weather Report
KBML - Berlin, New Hampshire
Updated at 4:52 PM GMT on July 23, 2014 (12:52 PM EDT):
No PIREP is currently available for this location.
AIRMET - Airmens Meteorological Information
KBML - Berlin, New Hampshire
Updated at 4:52 PM GMT on July 23, 2014 (12:52 PM EDT):
No AIRMET is currently available for this location.
SIGMET - Significant Meteorological Information
KBML - Berlin, New Hampshire
Updated at 4:52 PM GMT on July 23, 2014 (12:52 PM EDT):
No SIGMET is currently available for this location.
NOTAM - Notice to Airmen
KBML - Berlin, New Hampshire
Updated at 4:52 PM GMT on July 23, 2014 (12:52 PM EDT):
No NOTAM is currently available for this location.
Forecast Area
KBML - Berlin, New Hampshire
Updated at 4:52 PM GMT on July 23, 2014 (12:52 PM EDT):
No NOTAM is currently available for this location.
Aviation Weather Maps